This is the latest recevied weather packets stored in our database for station/object YC0TBU-3. If no packets are shown the sender has not sent any weather packets the latest 10 day(s).
| Time | Temp. | Humidity | Pressure | Rain* | Wind** | Luminosity | Snow |
|---|---|---|---|---|---|---|---|
| 1787577467 | 32.78° C | 54% | 1015.5 hPa | - | - | - | - |
| 1787575788 | 33.33° C | 53% | 1016 hPa | - | - | - | - |
| 1787574069 | 33.33° C | 51% | 1016.1 hPa | - | - | - | - |
| 1787572346 | 33.89° C | 50% | 1013.5 hPa | - | - | - | - |
| 1787570746 | 33.89° C | 49% | 1013.7 hPa | - | - | - | - |
| 1787569076 | 34.44° C | 48% | 1014.9 hPa | - | - | - | - |
| 1787567312 | 35.56° C | 46% | 1014.8 hPa | - | - | - | - |
| 1787565555 | 36.67° C | 44% | 1013.6 hPa | - | - | - | - |
| 1787563849 | 37.22° C | 43% | 1012.8 hPa | - | - | - | - |
| 1787562157 | 37.78° C | 42% | 1012.5 hPa | - | - | - | - |
| 1787560430 | 37.22° C | 40% | 1012.4 hPa | - | - | - | - |
| 1787558738 | 37.22° C | 39% | 1012.2 hPa | - | - | - | - |
| 1787557031 | 37.78° C | 38% | 1012.2 hPa | - | - | - | - |
| 1787555330 | 37.78° C | 37% | 1012.6 hPa | - | - | - | - |
| 1787553630 | 37.22° C | 38% | 1013.4 hPa | - | - | - | - |
| 1787551932 | 37.22° C | 39% | 1014.7 hPa | - | - | - | - |
| 1787550231 | 36.11° C | 41% | 1015.4 hPa | - | - | - | - |
| 1787548531 | 35.56° C | 44% | 1015.8 hPa | - | - | - | - |
| 1787546831 | 35° C | 45% | 1016.2 hPa | - | - | - | - |
| 1787545131 | 33.89° C | 48% | 1017.4 hPa | - | - | - | - |
| 1787543440 | 33.89° C | 49% | 1016 hPa | - | - | - | - |
| 1787541715 | 32.78° C | 52% | 1017.3 hPa | - | - | - | - |
| 1787540024 | 31.11° C | 53% | 1017.3 hPa | - | - | - | - |
| 1787538315 | 31.11° C | 55% | 1017.5 hPa | - | - | - | - |
| 1787536615 | 30° C | 60% | 1019.2 hPa | - | - | - | - |
* Rain since midnight (hover to see other rain measurements)
** Current wind speed in m/s (hover to see current wind gust speed)